sensor_id;sensor_type;location;lat;lon;timestamp;pressure;altitude;pressure_sealevel;temperature;humidity
54870;BME280;40756;-37.950;145.008;2023-11-21T00:00:10;101883.40;;;16.73;52.90
54870;BME280;40756;-37.950;145.008;2023-11-21T00:02:40;101878.33;;;17.94;51.25
54870;BME280;40756;-37.950;145.008;2023-11-21T00:05:10;101887.70;;;17.15;52.00
54870;BME280;40756;-37.950;145.008;2023-11-21T00:07:40;101879.43;;;17.61;51.49
54870;BME280;40756;-37.950;145.008;2023-11-21T00:10:10;101875.97;;;17.61;50.99
54870;BME280;40756;-37.950;145.008;2023-11-21T00:12:39;101878.81;;;17.45;51.07
54870;BME280;40756;-37.950;145.008;2023-11-21T00:15:10;101876.71;;;17.52;51.58
54870;BME280;40756;-37.950;145.008;2023-11-21T00:17:40;101877.27;;;17.28;52.67
54870;BME280;40756;-37.950;145.008;2023-11-21T00:20:10;101871.83;;;17.53;51.10
54870;BME280;40756;-37.950;145.008;2023-11-21T00:22:39;101872.73;;;18.00;51.43
54870;BME280;40756;-37.950;145.008;2023-11-21T00:25:09;101872.94;;;17.45;52.43
54870;BME280;40756;-37.950;145.008;2023-11-21T00:27:39;101872.18;;;17.20;52.08
54870;BME280;40756;-37.950;145.008;2023-11-21T00:30:09;101876.25;;;17.76;50.64
54870;BME280;40756;-37.950;145.008;2023-11-21T00:32:39;101872.16;;;18.16;49.81
54870;BME280;40756;-37.950;145.008;2023-11-21T00:35:09;101870.53;;;18.26;49.80
54870;BME280;40756;-37.950;145.008;2023-11-21T00:37:38;101871.26;;;17.72;50.22
54870;BME280;40756;-37.950;145.008;2023-11-21T00:40:09;101868.60;;;18.65;48.64
54870;BME280;40756;-37.950;145.008;2023-11-21T00:42:39;101867.57;;;18.40;48.23
54870;BME280;40756;-37.950;145.008;2023-11-21T00:45:09;101863.19;;;18.86;47.58
54870;BME280;40756;-37.950;145.008;2023-11-21T00:47:39;101867.55;;;18.12;48.02
54870;BME280;40756;-37.950;145.008;2023-11-21T00:50:09;101864.90;;;17.44;50.10
54870;BME280;40756;-37.950;145.008;2023-11-21T00:52:39;101857.86;;;18.54;48.65
54870;BME280;40756;-37.950;145.008;2023-11-21T00:55:09;101857.61;;;18.78;48.13
54870;BME280;40756;-37.950;145.008;2023-11-21T00:57:39;101863.29;;;18.34;47.92
54870;BME280;40756;-37.950;145.008;2023-11-21T01:00:09;101860.68;;;17.68;49.76
54870;BME280;40756;-37.950;145.008;2023-11-21T01:02:39;101861.29;;;18.93;47.77
54870;BME280;40756;-37.950;145.008;2023-11-21T01:05:09;101863.04;;;18.20;48.99
54870;BME280;40756;-37.950;145.008;2023-11-21T01:07:38;101863.13;;;18.02;48.28
54870;BME280;40756;-37.950;145.008;2023-11-21T01:10:08;101858.11;;;18.15;49.22
54870;BME280;40756;-37.950;145.008;2023-11-21T01:12:38;101855.43;;;18.48;48.00
54870;BME280;40756;-37.950;145.008;2023-11-21T01:15:08;101853.41;;;17.88;49.09
54870;BME280;40756;-37.950;145.008;2023-11-21T01:17:37;101858.32;;;17.75;49.22
54870;BME280;40756;-37.950;145.008;2023-11-21T01:20:08;101855.12;;;17.97;48.60
54870;BME280;40756;-37.950;145.008;2023-11-21T01:22:37;101859.24;;;18.18;48.94
54870;BME280;40756;-37.950;145.008;2023-11-21T01:25:07;101861.75;;;17.61;50.16
54870;BME280;40756;-37.950;145.008;2023-11-21T01:27:37;101853.66;;;18.52;48.05
54870;BME280;40756;-37.950;145.008;2023-11-21T01:30:07;101853.63;;;18.70;47.62
54870;BME280;40756;-37.950;145.008;2023-11-21T01:32:36;101851.11;;;18.13;48.48
54870;BME280;40756;-37.950;145.008;2023-11-21T01:35:06;101847.61;;;18.65;47.71
54870;BME280;40756;-37.950;145.008;2023-11-21T01:37:36;101852.50;;;17.46;49.22
54870;BME280;40756;-37.950;145.008;2023-11-21T01:40:06;101850.87;;;17.91;49.68
54870;BME280;40756;-37.950;145.008;2023-11-21T01:42:35;101845.07;;;17.92;49.74
54870;BME280;40756;-37.950;145.008;2023-11-21T01:45:06;101850.49;;;17.57;50.83
54870;BME280;40756;-37.950;145.008;2023-11-21T01:47:36;101845.27;;;17.74;50.25
54870;BME280;40756;-37.950;145.008;2023-11-21T01:50:07;101843.80;;;18.27;50.07
54870;BME280;40756;-37.950;145.008;2023-11-21T01:52:37;101848.71;;;17.69;49.51
54870;BME280;40756;-37.950;145.008;2023-11-21T01:55:09;101847.30;;;18.05;49.41
54870;BME280;40756;-37.950;145.008;2023-11-21T01:57:40;101844.42;;;18.78;47.94
54870;BME280;40756;-37.950;145.008;2023-11-21T02:00:11;101845.60;;;19.20;46.55
54870;BME280;40756;-37.950;145.008;2023-11-21T02:02:41;101847.76;;;18.24;47.90
54870;BME280;40756;-37.950;145.008;2023-11-21T02:05:12;101850.64;;;18.10;48.86
54870;BME280;40756;-37.950;145.008;2023-11-21T02:07:42;101849.72;;;18.75;47.74
54870;BME280;40756;-37.950;145.008;2023-11-21T02:10:12;101851.72;;;18.86;47.91
54870;BME280;40756;-37.950;145.008;2023-11-21T02:12:42;101850.72;;;18.52;48.17
54870;BME280;40756;-37.950;145.008;2023-11-21T02:15:13;101854.31;;;18.10;48.74
54870;BME280;40756;-37.950;145.008;2023-11-21T02:17:43;101851.84;;;18.75;47.70
54870;BME280;40756;-37.950;145.008;2023-11-21T02:20:13;101857.39;;;17.43;50.21
54870;BME280;40756;-37.950;145.008;2023-11-21T02:22:44;101857.02;;;18.10;49.13
54870;BME280;40756;-37.950;145.008;2023-11-21T02:25:14;101857.03;;;17.39;50.55
54870;BME280;40756;-37.950;145.008;2023-11-21T02:27:44;101855.51;;;18.75;48.28
54870;BME280;40756;-37.950;145.008;2023-11-21T02:30:14;101855.02;;;19.24;47.10
54870;BME280;40756;-37.950;145.008;2023-11-21T02:32:43;101861.74;;;19.17;47.48
54870;BME280;40756;-37.950;145.008;2023-11-21T02:35:13;101858.67;;;18.45;47.73
54870;BME280;40756;-37.950;145.008;2023-11-21T02:37:42;101858.32;;;19.70;45.99
54870;BME280;40756;-37.950;145.008;2023-11-21T02:40:12;101854.03;;;19.49;46.04
54870;BME280;40756;-37.950;145.008;2023-11-21T02:42:42;101848.49;;;19.47;45.65
54870;BME280;40756;-37.950;145.008;2023-11-21T02:45:12;101850.93;;;19.28;45.40
54870;BME280;40756;-37.950;145.008;2023-11-21T02:47:42;101847.49;;;20.35;44.06
54870;BME280;40756;-37.950;145.008;2023-11-21T02:50:12;101850.47;;;19.86;44.36
54870;BME280;40756;-37.950;145.008;2023-11-21T02:52:41;101855.05;;;19.21;45.08
54870;BME280;40756;-37.950;145.008;2023-11-21T02:55:11;101851.59;;;19.42;45.31
54870;BME280;40756;-37.950;145.008;2023-11-21T02:57:41;101852.73;;;19.36;45.48
54870;BME280;40756;-37.950;145.008;2023-11-21T03:00:11;101847.37;;;18.38;46.79
54870;BME280;40756;-37.950;145.008;2023-11-21T03:02:41;101847.60;;;19.03;46.58
54870;BME280;40756;-37.950;145.008;2023-11-21T03:05:11;101851.56;;;18.50;47.40
54870;BME280;40756;-37.950;145.008;2023-11-21T03:07:40;101848.72;;;19.96;46.00
54870;BME280;40756;-37.950;145.008;2023-11-21T03:10:10;101845.08;;;19.01;46.45
54870;BME280;40756;-37.950;145.008;2023-11-21T03:12:39;101842.65;;;19.26;46.66
54870;BME280;40756;-37.950;145.008;2023-11-21T03:15:09;101839.88;;;18.63;46.70
54870;BME280;40756;-37.950;145.008;2023-11-21T03:17:39;101838.51;;;19.51;45.87
54870;BME280;40756;-37.950;145.008;2023-11-21T03:20:10;101837.51;;;19.11;46.33
54870;BME280;40756;-37.950;145.008;2023-11-21T03:22:39;101836.69;;;18.54;47.38
54870;BME280;40756;-37.950;145.008;2023-11-21T03:25:09;101831.41;;;18.98;47.05
54870;BME280;40756;-37.950;145.008;2023-11-21T03:27:39;101828.43;;;19.93;45.96
54870;BME280;40756;-37.950;145.008;2023-11-21T03:30:09;101831.83;;;18.77;47.20
54870;BME280;40756;-37.950;145.008;2023-11-21T03:32:39;101828.84;;;19.36;47.71
54870;BME280;40756;-37.950;145.008;2023-11-21T03:35:09;101826.31;;;19.65;46.04
54870;BME280;40756;-37.950;145.008;2023-11-21T03:37:38;101829.72;;;19.47;46.25
54870;BME280;40756;-37.950;145.008;2023-11-21T03:40:09;101827.79;;;20.17;46.41
54870;BME280;40756;-37.950;145.008;2023-11-21T03:42:38;101819.06;;;20.46;44.93
54870;BME280;40756;-37.950;145.008;2023-11-21T03:45:08;101821.29;;;20.21;45.66
54870;BME280;40756;-37.950;145.008;2023-11-21T03:47:37;101820.23;;;19.89;45.71
54870;BME280;40756;-37.950;145.008;2023-11-21T03:50:08;101817.03;;;19.54;45.33
54870;BME280;40756;-37.950;145.008;2023-11-21T03:52:37;101818.53;;;20.06;45.38
54870;BME280;40756;-37.950;145.008;2023-11-21T03:55:07;101806.29;;;19.82;46.52
54870;BME280;40756;-37.950;145.008;2023-11-21T03:57:38;101806.35;;;19.12;47.52
54870;BME280;40756;-37.950;145.008;2023-11-21T04:00:08;101799.86;;;20.38;45.36
54870;BME280;40756;-37.950;145.008;2023-11-21T04:02:38;101799.21;;;19.85;46.43
54870;BME280;40756;-37.950;145.008;2023-11-21T04:05:07;101800.80;;;19.24;47.06
54870;BME280;40756;-37.950;145.008;2023-11-21T04:07:37;101801.30;;;19.20;47.49
54870;BME280;40756;-37.950;145.008;2023-11-21T04:10:08;101798.49;;;18.27;49.13
54870;BME280;40756;-37.950;145.008;2023-11-21T04:12:38;101798.39;;;19.16;47.82
54870;BME280;40756;-37.950;145.008;2023-11-21T04:15:08;101791.74;;;18.87;47.62
54870;BME280;40756;-37.950;145.008;2023-11-21T04:17:38;101790.51;;;18.77;48.70
54870;BME280;40756;-37.950;145.008;2023-11-21T04:20:08;101781.97;;;19.67;46.78
54870;BME280;40756;-37.950;145.008;2023-11-21T04:22:38;101779.22;;;19.48;46.92
54870;BME280;40756;-37.950;145.008;2023-11-21T04:25:09;101778.09;;;20.30;46.56
54870;BME280;40756;-37.950;145.008;2023-11-21T04:27:39;101776.46;;;19.83;46.61
54870;BME280;40756;-37.950;145.008;2023-11-21T04:30:10;101771.62;;;19.46;46.67
54870;BME280;40756;-37.950;145.008;2023-11-21T04:32:40;101769.30;;;19.78;46.97
54870;BME280;40756;-37.950;145.008;2023-11-21T04:35:10;101767.75;;;20.16;45.23
54870;BME280;40756;-37.950;145.008;2023-11-21T04:37:40;101758.71;;;21.46;43.49
54870;BME280;40756;-37.950;145.008;2023-11-21T04:40:11;101754.99;;;21.54;43.63
54870;BME280;40756;-37.950;145.008;2023-11-21T04:42:40;101754.15;;;20.67;44.31
54870;BME280;40756;-37.950;145.008;2023-11-21T04:45:10;101762.55;;;19.86;45.42
54870;BME280;40756;-37.950;145.008;2023-11-21T04:47:40;101753.51;;;20.17;45.72
54870;BME280;40756;-37.950;145.008;2023-11-21T04:50:10;101750.58;;;20.62;45.01
54870;BME280;40756;-37.950;145.008;2023-11-21T04:52:39;101756.84;;;20.52;44.85
54870;BME280;40756;-37.950;145.008;2023-11-21T04:55:09;101753.20;;;20.01;45.83
54870;BME280;40756;-37.950;145.008;2023-11-21T04:57:39;101761.03;;;20.08;45.27
54870;BME280;40756;-37.950;145.008;2023-11-21T05:00:10;101757.40;;;20.88;44.40
54870;BME280;40756;-37.950;145.008;2023-11-21T05:02:40;101754.42;;;20.14;46.07
54870;BME280;40756;-37.950;145.008;2023-11-21T05:05:10;101759.36;;;19.66;46.25
54870;BME280;40756;-37.950;145.008;2023-11-21T05:07:40;101752.84;;;18.80;46.32
54870;BME280;40756;-37.950;145.008;2023-11-21T05:10:11;101752.45;;;19.32;46.40
54870;BME280;40756;-37.950;145.008;2023-11-21T05:12:41;101750.54;;;20.65;43.78
54870;BME280;40756;-37.950;145.008;2023-11-21T05:15:15;101745.90;;;19.28;45.74
54870;BME280;40756;-37.950;145.008;2023-11-21T05:17:45;101746.80;;;19.53;45.28
54870;BME280;40756;-37.950;145.008;2023-11-21T05:20:15;101740.03;;;19.95;45.16
54870;BME280;40756;-37.950;145.008;2023-11-21T05:22:44;101742.72;;;19.40;45.72
54870;BME280;40756;-37.950;145.008;2023-11-21T05:25:14;101739.57;;;20.54;44.36
54870;BME280;40756;-37.950;145.008;2023-11-21T05:27:43;101737.94;;;19.40;45.36
54870;BME280;40756;-37.950;145.008;2023-11-21T05:30:14;101738.02;;;19.69;45.90
54870;BME280;40756;-37.950;145.008;2023-11-21T05:32:44;101742.57;;;19.39;45.99
54870;BME280;40756;-37.950;145.008;2023-11-21T05:35:13;101739.33;;;19.45;46.66
54870;BME280;40756;-37.950;145.008;2023-11-21T05:37:43;101736.75;;;19.47;46.63
54870;BME280;40756;-37.950;145.008;2023-11-21T05:40:14;101736.17;;;19.97;45.72
54870;BME280;40756;-37.950;145.008;2023-11-21T05:42:45;101744.26;;;19.77;45.79
54870;BME280;40756;-37.950;145.008;2023-11-21T05:45:14;101749.11;;;18.34;47.91
54870;BME280;40756;-37.950;145.008;2023-11-21T05:47:45;101750.09;;;18.02;49.77
54870;BME280;40756;-37.950;145.008;2023-11-21T05:50:16;101745.19;;;18.64;49.54
54870;BME280;40756;-37.950;145.008;2023-11-21T05:52:47;101752.05;;;18.94;48.03
54870;BME280;40756;-37.950;145.008;2023-11-21T05:55:17;101748.09;;;18.59;48.54
54870;BME280;40756;-37.950;145.008;2023-11-21T05:57:48;101752.20;;;19.08;48.54
54870;BME280;40756;-37.950;145.008;2023-11-21T06:00:17;101750.04;;;18.10;48.84
54870;BME280;40756;-37.950;145.008;2023-11-21T06:02:47;101758.06;;;18.87;48.46
54870;BME280;40756;-37.950;145.008;2023-11-21T06:05:16;101764.86;;;18.36;49.29
54870;BME280;40756;-37.950;145.008;2023-11-21T06:07:50;101768.95;;;18.87;47.53
54870;BME280;40756;-37.950;145.008;2023-11-21T06:10:24;101765.83;;;17.95;48.55
54870;BME280;40756;-37.950;145.008;2023-11-21T06:12:55;101771.20;;;17.85;49.13
54870;BME280;40756;-37.950;145.008;2023-11-21T06:15:26;101770.27;;;17.27;49.74
54870;BME280;40756;-37.950;145.008;2023-11-21T06:17:56;101770.23;;;17.85;50.20
54870;BME280;40756;-37.950;145.008;2023-11-21T06:20:26;101770.52;;;17.44;51.06
54870;BME280;40756;-37.950;145.008;2023-11-21T06:23:04;101775.03;;;17.48;49.76
54870;BME280;40756;-37.950;145.008;2023-11-21T06:25:35;101779.81;;;18.91;47.25
54870;BME280;40756;-37.950;145.008;2023-11-21T06:28:17;101784.19;;;19.47;46.24
54870;BME280;40756;-37.950;145.008;2023-11-21T06:30:50;101793.85;;;17.72;49.44
54870;BME280;40756;-37.950;145.008;2023-11-21T06:33:27;101797.76;;;17.93;49.25
54870;BME280;40756;-37.950;145.008;2023-11-21T06:36:06;101798.70;;;17.69;50.45
54870;BME280;40756;-37.950;145.008;2023-11-21T06:38:40;101799.28;;;17.69;50.21
54870;BME280;40756;-37.950;145.008;2023-11-21T06:41:14;101804.08;;;17.66;50.28
54870;BME280;40756;-37.950;145.008;2023-11-21T06:43:44;101809.11;;;16.98;51.25
54870;BME280;40756;-37.950;145.008;2023-11-21T06:46:14;101805.13;;;18.37;49.68
54870;BME280;40756;-37.950;145.008;2023-11-21T06:48:45;101806.53;;;17.95;49.49
54870;BME280;40756;-37.950;145.008;2023-11-21T06:51:18;101806.98;;;18.20;49.55
54870;BME280;40756;-37.950;145.008;2023-11-21T06:53:48;101817.21;;;17.52;50.78
54870;BME280;40756;-37.950;145.008;2023-11-21T06:56:21;101822.95;;;18.58;48.92
54870;BME280;40756;-37.950;145.008;2023-11-21T06:58:53;101829.63;;;17.92;50.36
54870;BME280;40756;-37.950;145.008;2023-11-21T07:01:23;101834.19;;;19.38;47.42
54870;BME280;40756;-37.950;145.008;2023-11-21T07:03:53;101833.18;;;20.08;45.48
54870;BME280;40756;-37.950;145.008;2023-11-21T07:06:23;101832.59;;;19.83;45.51
54870;BME280;40756;-37.950;145.008;2023-11-21T07:08:53;101835.89;;;19.08;46.39
54870;BME280;40756;-37.950;145.008;2023-11-21T07:11:24;101838.89;;;17.93;47.89
54870;BME280;40756;-37.950;145.008;2023-11-21T07:13:54;101848.64;;;18.65;47.18
54870;BME280;40756;-37.950;145.008;2023-11-21T07:16:27;101858.02;;;19.01;47.39
54870;BME280;40756;-37.950;145.008;2023-11-21T07:18:58;101862.78;;;18.79;46.83
54870;BME280;40756;-37.950;145.008;2023-11-21T07:21:28;101871.97;;;19.78;45.36
54870;BME280;40756;-37.950;145.008;2023-11-21T07:24:11;101872.37;;;18.89;46.45
54870;BME280;40756;-37.950;145.008;2023-11-21T07:26:41;101871.45;;;20.03;45.84
54870;BME280;40756;-37.950;145.008;2023-11-21T07:29:19;101879.51;;;19.16;46.20
54870;BME280;40756;-37.950;145.008;2023-11-21T07:31:50;101885.92;;;18.56;47.42
54870;BME280;40756;-37.950;145.008;2023-11-21T07:34:20;101892.22;;;18.91;46.89
54870;BME280;40756;-37.950;145.008;2023-11-21T07:36:52;101904.09;;;18.18;48.43
54870;BME280;40756;-37.950;145.008;2023-11-21T07:39:21;101899.73;;;18.38;47.42
54870;BME280;40756;-37.950;145.008;2023-11-21T07:42:05;101901.52;;;19.12;46.93
54870;BME280;40756;-37.950;145.008;2023-11-21T07:44:37;101906.66;;;18.11;47.60
54870;BME280;40756;-37.950;145.008;2023-11-21T07:47:26;101907.93;;;19.20;45.85
54870;BME280;40756;-37.950;145.008;2023-11-21T07:49:56;101916.05;;;17.28;48.65
54870;BME280;40756;-37.950;145.008;2023-11-21T07:52:26;101919.66;;;17.52;49.36
54870;BME280;40756;-37.950;145.008;2023-11-21T07:54:56;101923.20;;;17.02;50.15
54870;BME280;40756;-37.950;145.008;2023-11-21T07:57:25;101926.92;;;16.72;51.31
54870;BME280;40756;-37.950;145.008;2023-11-21T07:59:55;101929.98;;;16.97;50.88
54870;BME280;40756;-37.950;145.008;2023-11-21T08:02:25;101928.31;;;17.59;49.91
54870;BME280;40756;-37.950;145.008;2023-11-21T08:04:54;101930.47;;;17.55;49.53
54870;BME280;40756;-37.950;145.008;2023-11-21T08:07:24;101942.34;;;17.19;50.24
54870;BME280;40756;-37.950;145.008;2023-11-21T08:09:53;101948.11;;;17.10;51.38
54870;BME280;40756;-37.950;145.008;2023-11-21T08:12:23;101951.07;;;17.55;51.05
54870;BME280;40756;-37.950;145.008;2023-11-21T08:14:52;101948.72;;;17.04;51.90
54870;BME280;40756;-37.950;145.008;2023-11-21T08:17:22;101950.19;;;17.85;49.98
54870;BME280;40756;-37.950;145.008;2023-11-21T08:19:51;101955.45;;;17.68;50.28
54870;BME280;40756;-37.950;145.008;2023-11-21T08:22:21;101960.52;;;16.19;53.05
54870;BME280;40756;-37.950;145.008;2023-11-21T08:24:50;101961.79;;;17.36;50.79
54870;BME280;40756;-37.950;145.008;2023-11-21T08:27:20;101960.65;;;16.79;51.63
54870;BME280;40756;-37.950;145.008;2023-11-21T08:29:49;101963.53;;;17.13;51.69
54870;BME280;40756;-37.950;145.008;2023-11-21T08:32:19;101968.86;;;17.19;51.25
54870;BME280;40756;-37.950;145.008;2023-11-21T08:34:49;101968.37;;;17.17;50.57
54870;BME280;40756;-37.950;145.008;2023-11-21T08:37:21;101968.49;;;16.29;51.99
54870;BME280;40756;-37.950;145.008;2023-11-21T08:39:51;101966.17;;;15.44;54.13
54870;BME280;40756;-37.950;145.008;2023-11-21T08:42:21;101971.57;;;16.39;52.95
54870;BME280;40756;-37.950;145.008;2023-11-21T08:44:50;101977.04;;;15.99;54.63
54870;BME280;40756;-37.950;145.008;2023-11-21T08:47:21;101978.45;;;16.46;53.44
54870;BME280;40756;-37.950;145.008;2023-11-21T08:49:50;101981.27;;;15.40;55.64
54870;BME280;40756;-37.950;145.008;2023-11-21T08:52:20;101988.24;;;15.98;55.00
54870;BME280;40756;-37.950;145.008;2023-11-21T08:54:50;101986.92;;;16.48;53.97
54870;BME280;40756;-37.950;145.008;2023-11-21T08:57:22;101989.13;;;17.03;53.66
54870;BME280;40756;-37.950;145.008;2023-11-21T08:59:51;101990.83;;;16.78;53.28
54870;BME280;40756;-37.950;145.008;2023-11-21T09:02:22;101996.32;;;17.09;52.31
54870;BME280;40756;-37.950;145.008;2023-11-21T09:04:51;102000.71;;;16.36;53.38
54870;BME280;40756;-37.950;145.008;2023-11-21T09:07:21;102003.13;;;17.01;52.20
54870;BME280;40756;-37.950;145.008;2023-11-21T09:09:51;102003.85;;;17.57;51.18
54870;BME280;40756;-37.950;145.008;2023-11-21T09:12:20;101997.89;;;16.59;53.40
54870;BME280;40756;-37.950;145.008;2023-11-21T09:14:50;101999.84;;;17.03;52.80
54870;BME280;40756;-37.950;145.008;2023-11-21T09:17:20;102006.51;;;16.92;52.68
54870;BME280;40756;-37.950;145.008;2023-11-21T09:19:49;102005.23;;;16.46;53.89
54870;BME280;40756;-37.950;145.008;2023-11-21T09:22:19;102008.77;;;15.77;55.41
54870;BME280;40756;-37.950;145.008;2023-11-21T09:24:48;102008.15;;;16.17;54.42
54870;BME280;40756;-37.950;145.008;2023-11-21T09:27:18;102014.87;;;16.43;55.48
54870;BME280;40756;-37.950;145.008;2023-11-21T09:29:47;102017.81;;;16.48;54.77
54870;BME280;40756;-37.950;145.008;2023-11-21T09:32:16;102017.95;;;16.50;53.67
54870;BME280;40756;-37.950;145.008;2023-11-21T09:34:46;102025.90;;;15.75;55.26
54870;BME280;40756;-37.950;145.008;2023-11-21T09:37:16;102033.93;;;15.72;56.68
54870;BME280;40756;-37.950;145.008;2023-11-21T09:39:46;102040.78;;;15.23;56.95
54870;BME280;40756;-37.950;145.008;2023-11-21T09:42:19;102041.69;;;15.74;56.17
54870;BME280;40756;-37.950;145.008;2023-11-21T09:44:57;102041.40;;;15.95;55.57
54870;BME280;40756;-37.950;145.008;2023-11-21T09:47:29;102045.17;;;16.27;54.08
54870;BME280;40756;-37.950;145.008;2023-11-21T09:50:01;102054.58;;;15.91;53.96
54870;BME280;40756;-37.950;145.008;2023-11-21T09:52:32;102057.47;;;15.51;55.61
54870;BME280;40756;-37.950;145.008;2023-11-21T09:55:03;102060.38;;;16.62;54.17
54870;BME280;40756;-37.950;145.008;2023-11-21T09:57:32;102054.31;;;16.00;53.65
54870;BME280;40756;-37.950;145.008;2023-11-21T10:00:03;102050.81;;;16.37;51.82
54870;BME280;40756;-37.950;145.008;2023-11-21T10:02:34;102053.50;;;16.49;51.73
54870;BME280;40756;-37.950;145.008;2023-11-21T10:05:05;102050.17;;;16.76;51.04
54870;BME280;40756;-37.950;145.008;2023-11-21T10:07:35;102053.03;;;16.31;51.82
54870;BME280;40756;-37.950;145.008;2023-11-21T10:10:07;102057.05;;;16.05;52.21
54870;BME280;40756;-37.950;145.008;2023-11-21T10:12:37;102057.57;;;15.73;51.91
54870;BME280;40756;-37.950;145.008;2023-11-21T10:15:09;102055.11;;;16.51;51.19
54870;BME280;40756;-37.950;145.008;2023-11-21T10:17:42;102055.44;;;16.80;50.28
54870;BME280;40756;-37.950;145.008;2023-11-21T10:20:13;102052.78;;;16.11;51.07
54870;BME280;40756;-37.950;145.008;2023-11-21T10:22:43;102056.22;;;15.73;51.86
54870;BME280;40756;-37.950;145.008;2023-11-21T10:25:13;102058.80;;;15.56;51.75
54870;BME280;40756;-37.950;145.008;2023-11-21T10:27:42;102062.80;;;15.98;51.36
54870;BME280;40756;-37.950;145.008;2023-11-21T10:30:12;102064.25;;;15.91;51.77
54870;BME280;40756;-37.950;145.008;2023-11-21T10:32:41;102065.50;;;15.52;52.83
54870;BME280;40756;-37.950;145.008;2023-11-21T10:35:11;102070.45;;;16.67;50.57
54870;BME280;40756;-37.950;145.008;2023-11-21T10:37:41;102076.39;;;16.34;50.35
54870;BME280;40756;-37.950;145.008;2023-11-21T10:40:12;102080.66;;;14.99;52.90
54870;BME280;40756;-37.950;145.008;2023-11-21T10:42:41;102082.81;;;16.85;50.62
54870;BME280;40756;-37.950;145.008;2023-11-21T10:45:11;102084.43;;;16.87;50.13
54870;BME280;40756;-37.950;145.008;2023-11-21T10:47:40;102088.58;;;16.65;51.16
54870;BME280;40756;-37.950;145.008;2023-11-21T10:50:11;102090.83;;;16.46;51.70
54870;BME280;40756;-37.950;145.008;2023-11-21T10:52:41;102096.75;;;16.22;52.62
54870;BME280;40756;-37.950;145.008;2023-11-21T10:55:19;102099.71;;;16.51;51.72
54870;BME280;40756;-37.950;145.008;2023-11-21T10:57:51;102106.62;;;16.62;51.63
54870;BME280;40756;-37.950;145.008;2023-11-21T11:00:21;102113.71;;;16.40;51.80
54870;BME280;40756;-37.950;145.008;2023-11-21T11:02:54;102120.00;;;16.54;51.28
54870;BME280;40756;-37.950;145.008;2023-11-21T11:05:25;102129.00;;;15.86;52.03
54870;BME280;40756;-37.950;145.008;2023-11-21T11:08:05;102126.42;;;16.63;51.01
54870;BME280;40756;-37.950;145.008;2023-11-21T11:10:37;102124.12;;;15.83;52.68
54870;BME280;40756;-37.950;145.008;2023-11-21T11:13:09;102118.32;;;15.95;53.64
54870;BME280;40756;-37.950;145.008;2023-11-21T11:15:39;102118.26;;;15.62;53.12
54870;BME280;40756;-37.950;145.008;2023-11-21T11:18:09;102125.52;;;16.23;53.75
54870;BME280;40756;-37.950;145.008;2023-11-21T11:20:39;102128.68;;;16.47;52.89
54870;BME280;40756;-37.950;145.008;2023-11-21T11:23:27;102131.59;;;15.07;55.40
54870;BME280;40756;-37.950;145.008;2023-11-21T11:26:09;102129.99;;;15.77;54.05
54870;BME280;40756;-37.950;145.008;2023-11-21T11:28:47;102132.99;;;16.23;52.56
54870;BME280;40756;-37.950;145.008;2023-11-21T11:31:31;102141.30;;;15.39;54.27
54870;BME280;40756;-37.950;145.008;2023-11-21T11:34:17;102142.61;;;16.58;51.86
54870;BME280;40756;-37.950;145.008;2023-11-21T11:36:54;102142.87;;;16.38;51.77
54870;BME280;40756;-37.950;145.008;2023-11-21T11:39:35;102140.95;;;17.00;50.06
54870;BME280;40756;-37.950;145.008;2023-11-21T11:42:06;102148.00;;;16.49;50.07
54870;BME280;40756;-37.950;145.008;2023-11-21T11:44:50;102157.56;;;16.15;50.58
54870;BME280;40756;-37.950;145.008;2023-11-21T11:47:23;102161.10;;;16.31;50.46
54870;BME280;40756;-37.950;145.008;2023-11-21T11:50:02;102159.92;;;16.51;50.94
54870;BME280;40756;-37.950;145.008;2023-11-21T11:52:41;102156.99;;;16.53;50.28
54870;BME280;40756;-37.950;145.008;2023-11-21T11:55:13;102153.41;;;15.99;51.94
54870;BME280;40756;-37.950;145.008;2023-11-21T11:57:43;102151.42;;;16.18;50.98
54870;BME280;40756;-37.950;145.008;2023-11-21T12:00:17;102150.24;;;16.59;50.18
54870;BME280;40756;-37.950;145.008;2023-11-21T12:02:48;102144.99;;;15.91;49.94
54870;BME280;40756;-37.950;145.008;2023-11-21T12:05:19;102142.62;;;16.25;49.82
54870;BME280;40756;-37.950;145.008;2023-11-21T12:07:50;102138.18;;;16.49;49.29
54870;BME280;40756;-37.950;145.008;2023-11-21T12:10:21;102137.51;;;16.07;49.28
54870;BME280;40756;-37.950;145.008;2023-11-21T12:12:53;102143.27;;;15.21;51.81
54870;BME280;40756;-37.950;145.008;2023-11-21T12:15:23;102148.30;;;14.67;53.72
54870;BME280;40756;-37.950;145.008;2023-11-21T12:17:54;102144.52;;;14.93;53.11
54870;BME280;40756;-37.950;145.008;2023-11-21T12:20:24;102144.25;;;15.57;52.58
54870;BME280;40756;-37.950;145.008;2023-11-21T12:22:56;102143.35;;;15.67;52.85
54870;BME280;40756;-37.950;145.008;2023-11-21T12:25:26;102141.59;;;15.18;53.55
54870;BME280;40756;-37.950;145.008;2023-11-21T12:27:57;102141.48;;;16.17;51.29
54870;BME280;40756;-37.950;145.008;2023-11-21T12:30:28;102139.13;;;15.99;51.81
54870;BME280;40756;-37.950;145.008;2023-11-21T12:32:59;102140.72;;;16.14;51.20
54870;BME280;40756;-37.950;145.008;2023-11-21T12:35:30;102139.31;;;16.25;50.87
54870;BME280;40756;-37.950;145.008;2023-11-21T12:38:02;102139.64;;;15.98;50.87